sensor_id;sensor_type;location;lat;lon;timestamp;P1;durP1;ratioP1;P2;durP2;ratioP2
3177;SDS011;38141;42.666;23.344;2023-02-02T00:00:54;5.83;;;3.10;;
3177;SDS011;38141;42.666;23.344;2023-02-02T00:03:22;6.17;;;3.37;;
3177;SDS011;38141;42.666;23.344;2023-02-02T00:05:50;8.80;;;3.20;;
3177;SDS011;38141;42.666;23.344;2023-02-02T00:08:18;10.60;;;3.00;;
3177;SDS011;38141;42.666;23.344;2023-02-02T00:10:46;5.60;;;2.90;;
3177;SDS011;38141;42.666;23.344;2023-02-02T00:13:15;7.40;;;3.20;;
3177;SDS011;38141;42.666;23.344;2023-02-02T00:15:42;5.20;;;3.33;;
3177;SDS011;38141;42.666;23.344;2023-02-02T00:18:09;3.80;;;2.87;;
3177;SDS011;38141;42.666;23.344;2023-02-02T00:20:37;4.80;;;3.53;;
3177;SDS011;38141;42.666;23.344;2023-02-02T00:23:04;3.97;;;2.73;;
3177;SDS011;38141;42.666;23.344;2023-02-02T00:25:31;8.40;;;3.77;;
3177;SDS011;38141;42.666;23.344;2023-02-02T00:27:58;7.23;;;3.40;;
3177;SDS011;38141;42.666;23.344;2023-02-02T00:30:25;5.00;;;2.80;;
3177;SDS011;38141;42.666;23.344;2023-02-02T00:32:51;5.40;;;3.77;;
3177;SDS011;38141;42.666;23.344;2023-02-02T00:35:18;7.33;;;3.40;;
3177;SDS011;38141;42.666;23.344;2023-02-02T00:37:47;7.30;;;3.77;;
3177;SDS011;38141;42.666;23.344;2023-02-02T00:40:13;4.20;;;3.10;;
3177;SDS011;38141;42.666;23.344;2023-02-02T00:42:40;6.97;;;3.80;;
3177;SDS011;38141;42.666;23.344;2023-02-02T00:45:11;5.03;;;3.27;;
3177;SDS011;38141;42.666;23.344;2023-02-02T00:47:40;5.73;;;3.50;;
3177;SDS011;38141;42.666;23.344;2023-02-02T00:50:08;5.80;;;3.40;;
3177;SDS011;38141;42.666;23.344;2023-02-02T00:52:36;9.33;;;4.20;;
3177;SDS011;38141;42.666;23.344;2023-02-02T00:55:05;8.37;;;4.00;;
3177;SDS011;38141;42.666;23.344;2023-02-02T00:57:32;7.63;;;3.97;;
3177;SDS011;38141;42.666;23.344;2023-02-02T00:59:59;6.07;;;3.30;;
3177;SDS011;38141;42.666;23.344;2023-02-02T01:02:26;3.33;;;2.90;;
3177;SDS011;38141;42.666;23.344;2023-02-02T01:04:53;6.00;;;3.37;;
3177;SDS011;38141;42.666;23.344;2023-02-02T01:07:19;6.63;;;3.33;;
3177;SDS011;38141;42.666;23.344;2023-02-02T01:09:46;3.73;;;3.07;;
3177;SDS011;38141;42.666;23.344;2023-02-02T01:12:14;4.50;;;3.13;;
3177;SDS011;38141;42.666;23.344;2023-02-02T01:14:41;4.57;;;3.07;;
3177;SDS011;38141;42.666;23.344;2023-02-02T01:17:08;6.67;;;3.10;;
3177;SDS011;38141;42.666;23.344;2023-02-02T01:19:34;3.93;;;2.80;;
3177;SDS011;38141;42.666;23.344;2023-02-02T01:22:01;4.47;;;3.10;;
3177;SDS011;38141;42.666;23.344;2023-02-02T01:24:28;4.57;;;2.93;;
3177;SDS011;38141;42.666;23.344;2023-02-02T01:26:55;4.10;;;2.87;;
3177;SDS011;38141;42.666;23.344;2023-02-02T01:29:24;6.77;;;3.23;;
3177;SDS011;38141;42.666;23.344;2023-02-02T01:31:51;5.17;;;3.43;;
3177;SDS011;38141;42.666;23.344;2023-02-02T01:34:17;4.03;;;3.03;;
3177;SDS011;38141;42.666;23.344;2023-02-02T01:36:44;6.10;;;3.40;;
3177;SDS011;38141;42.666;23.344;2023-02-02T01:39:11;4.43;;;3.37;;
3177;SDS011;38141;42.666;23.344;2023-02-02T01:41:38;4.70;;;3.00;;
3177;SDS011;38141;42.666;23.344;2023-02-02T01:47:07;3.83;;;3.20;;
3177;SDS011;38141;42.666;23.344;2023-02-02T01:49:34;5.10;;;3.03;;
3177;SDS011;38141;42.666;23.344;2023-02-02T01:52:02;4.40;;;3.80;;
3177;SDS011;38141;42.666;23.344;2023-02-02T01:54:30;6.13;;;4.27;;
3177;SDS011;38141;42.666;23.344;2023-02-02T01:57:01;10.63;;;4.70;;
3177;SDS011;38141;42.666;23.344;2023-02-02T01:59:31;7.27;;;5.50;;
3177;SDS011;38141;42.666;23.344;2023-02-02T02:01:59;12.13;;;6.43;;
3177;SDS011;38141;42.666;23.344;2023-02-02T02:04:29;10.83;;;5.87;;
3177;SDS011;38141;42.666;23.344;2023-02-02T02:06:57;8.17;;;5.60;;
3177;SDS011;38141;42.666;23.344;2023-02-02T02:09:26;8.27;;;5.50;;
3177;SDS011;38141;42.666;23.344;2023-02-02T02:11:52;9.77;;;5.50;;
3177;SDS011;38141;42.666;23.344;2023-02-02T02:14:20;8.50;;;5.30;;
3177;SDS011;38141;42.666;23.344;2023-02-02T02:17:17;10.33;;;5.80;;
3177;SDS011;38141;42.666;23.344;2023-02-02T02:27:03;8.70;;;5.10;;
3177;SDS011;38141;42.666;23.344;2023-02-02T02:32:57;6.70;;;4.83;;
3177;SDS011;38141;42.666;23.344;2023-02-02T02:35:32;7.77;;;4.40;;
3177;SDS011;38141;42.666;23.344;2023-02-02T02:38:03;6.70;;;4.30;;
3177;SDS011;38141;42.666;23.344;2023-02-02T02:40:36;7.10;;;4.50;;
3177;SDS011;38141;42.666;23.344;2023-02-02T02:43:07;6.77;;;4.80;;
3177;SDS011;38141;42.666;23.344;2023-02-02T02:45:37;7.13;;;4.90;;
3177;SDS011;38141;42.666;23.344;2023-02-02T02:48:08;6.53;;;4.70;;
3177;SDS011;38141;42.666;23.344;2023-02-02T02:50:35;7.43;;;4.40;;
3177;SDS011;38141;42.666;23.344;2023-02-02T02:53:03;6.30;;;4.27;;
3177;SDS011;38141;42.666;23.344;2023-02-02T02:55:35;7.70;;;4.53;;
3177;SDS011;38141;42.666;23.344;2023-02-02T02:58:11;8.43;;;4.80;;
3177;SDS011;38141;42.666;23.344;2023-02-02T03:00:47;7.80;;;4.80;;
3177;SDS011;38141;42.666;23.344;2023-02-02T03:03:31;7.43;;;4.60;;
3177;SDS011;38141;42.666;23.344;2023-02-02T03:06:09;6.80;;;4.40;;
3177;SDS011;38141;42.666;23.344;2023-02-02T03:08:41;9.40;;;4.77;;
3177;SDS011;38141;42.666;23.344;2023-02-02T03:11:12;9.10;;;5.07;;
3177;SDS011;38141;42.666;23.344;2023-02-02T03:13:40;7.13;;;4.60;;
3177;SDS011;38141;42.666;23.344;2023-02-02T03:16:08;5.23;;;4.53;;
3177;SDS011;38141;42.666;23.344;2023-02-02T03:18:37;6.13;;;4.27;;
3177;SDS011;38141;42.666;23.344;2023-02-02T03:21:04;6.57;;;4.23;;
3177;SDS011;38141;42.666;23.344;2023-02-02T03:23:32;7.03;;;5.30;;
3177;SDS011;38141;42.666;23.344;2023-02-02T03:25:59;6.07;;;3.97;;
3177;SDS011;38141;42.666;23.344;2023-02-02T03:28:26;6.77;;;3.90;;
3177;SDS011;38141;42.666;23.344;2023-02-02T03:30:53;11.50;;;4.40;;
3177;SDS011;38141;42.666;23.344;2023-02-02T03:33:22;7.47;;;4.70;;
3177;SDS011;38141;42.666;23.344;2023-02-02T03:35:50;7.20;;;4.30;;
3177;SDS011;38141;42.666;23.344;2023-02-02T03:38:17;7.50;;;4.23;;
3177;SDS011;38141;42.666;23.344;2023-02-02T03:40:44;6.37;;;4.60;;
3177;SDS011;38141;42.666;23.344;2023-02-02T03:43:12;8.47;;;4.40;;
3177;SDS011;38141;42.666;23.344;2023-02-02T03:45:38;7.20;;;4.13;;
3177;SDS011;38141;42.666;23.344;2023-02-02T03:48:05;6.37;;;4.23;;
3177;SDS011;38141;42.666;23.344;2023-02-02T03:50:32;7.10;;;4.50;;
3177;SDS011;38141;42.666;23.344;2023-02-02T03:53:01;5.50;;;3.80;;
3177;SDS011;38141;42.666;23.344;2023-02-02T03:55:27;5.77;;;4.27;;
3177;SDS011;38141;42.666;23.344;2023-02-02T03:57:54;6.53;;;4.57;;
3177;SDS011;38141;42.666;23.344;2023-02-02T04:00:21;6.60;;;4.63;;
3177;SDS011;38141;42.666;23.344;2023-02-02T04:02:48;5.50;;;4.50;;
3177;SDS011;38141;42.666;23.344;2023-02-02T04:05:15;7.37;;;4.63;;
3177;SDS011;38141;42.666;23.344;2023-02-02T04:07:41;7.23;;;4.50;;
3177;SDS011;38141;42.666;23.344;2023-02-02T04:10:10;6.93;;;5.00;;
3177;SDS011;38141;42.666;23.344;2023-02-02T04:12:37;11.93;;;5.60;;
3177;SDS011;38141;42.666;23.344;2023-02-02T04:15:04;7.50;;;5.03;;
3177;SDS011;38141;42.666;23.344;2023-02-02T04:17:32;10.03;;;5.30;;
3177;SDS011;38141;42.666;23.344;2023-02-02T04:19:59;8.30;;;5.17;;
3177;SDS011;38141;42.666;23.344;2023-02-02T04:22:26;8.27;;;5.80;;
3177;SDS011;38141;42.666;23.344;2023-02-02T04:24:52;8.67;;;5.27;;
3177;SDS011;38141;42.666;23.344;2023-02-02T04:27:21;12.30;;;5.90;;
3177;SDS011;38141;42.666;23.344;2023-02-02T04:29:47;10.07;;;5.80;;
3177;SDS011;38141;42.666;23.344;2023-02-02T04:32:14;7.63;;;5.20;;
3177;SDS011;38141;42.666;23.344;2023-02-02T04:34:42;9.83;;;5.67;;
3177;SDS011;38141;42.666;23.344;2023-02-02T04:37:09;8.47;;;5.30;;
3177;SDS011;38141;42.666;23.344;2023-02-02T04:39:36;8.80;;;5.50;;
3177;SDS011;38141;42.666;23.344;2023-02-02T04:42:03;6.67;;;5.10;;
3177;SDS011;38141;42.666;23.344;2023-02-02T04:44:31;7.63;;;5.10;;
3177;SDS011;38141;42.666;23.344;2023-02-02T04:46:58;6.93;;;5.50;;
3177;SDS011;38141;42.666;23.344;2023-02-02T04:49:25;7.63;;;4.97;;
3177;SDS011;38141;42.666;23.344;2023-02-02T04:51:51;7.37;;;5.50;;
3177;SDS011;38141;42.666;23.344;2023-02-02T04:54:18;9.43;;;5.67;;
3177;SDS011;38141;42.666;23.344;2023-02-02T04:56:45;11.13;;;7.00;;
3177;SDS011;38141;42.666;23.344;2023-02-02T04:59:11;10.20;;;6.30;;
3177;SDS011;38141;42.666;23.344;2023-02-02T05:01:39;9.30;;;5.73;;
3177;SDS011;38141;42.666;23.344;2023-02-02T05:04:06;8.60;;;5.63;;
3177;SDS011;38141;42.666;23.344;2023-02-02T05:06:33;9.00;;;5.80;;
3177;SDS011;38141;42.666;23.344;2023-02-02T05:08:59;7.17;;;5.70;;
3177;SDS011;38141;42.666;23.344;2023-02-02T05:11:26;9.20;;;5.90;;
3177;SDS011;38141;42.666;23.344;2023-02-02T05:13:55;9.37;;;5.50;;
3177;SDS011;38141;42.666;23.344;2023-02-02T05:16:22;8.30;;;5.97;;
3177;SDS011;38141;42.666;23.344;2023-02-02T05:18:51;12.60;;;5.87;;
3177;SDS011;38141;42.666;23.344;2023-02-02T05:21:19;10.50;;;5.90;;
3177;SDS011;38141;42.666;23.344;2023-02-02T05:23:46;13.60;;;6.90;;
3177;SDS011;38141;42.666;23.344;2023-02-02T05:26:14;8.63;;;5.77;;
3177;SDS011;38141;42.666;23.344;2023-02-02T05:28:42;7.07;;;5.10;;
3177;SDS011;38141;42.666;23.344;2023-02-02T05:31:09;13.20;;;6.90;;
3177;SDS011;38141;42.666;23.344;2023-02-02T05:33:36;8.37;;;6.07;;
3177;SDS011;38141;42.666;23.344;2023-02-02T05:36:05;13.40;;;7.53;;
3177;SDS011;38141;42.666;23.344;2023-02-02T05:38:32;12.80;;;7.03;;
3177;SDS011;38141;42.666;23.344;2023-02-02T05:41:00;8.93;;;6.77;;
3177;SDS011;38141;42.666;23.344;2023-02-02T05:43:27;15.63;;;7.80;;
3177;SDS011;38141;42.666;23.344;2023-02-02T05:45:55;13.57;;;8.30;;
3177;SDS011;38141;42.666;23.344;2023-02-02T05:48:22;10.80;;;7.10;;
3177;SDS011;38141;42.666;23.344;2023-02-02T05:50:56;15.20;;;8.10;;
3177;SDS011;38141;42.666;23.344;2023-02-02T05:53:29;11.30;;;7.57;;
3177;SDS011;38141;42.666;23.344;2023-02-02T05:55:57;13.20;;;7.43;;
3177;SDS011;38141;42.666;23.344;2023-02-02T05:58:24;20.00;;;10.30;;
3177;SDS011;38141;42.666;23.344;2023-02-02T06:00:52;15.73;;;7.93;;
3177;SDS011;38141;42.666;23.344;2023-02-02T06:03:19;12.00;;;7.90;;
3177;SDS011;38141;42.666;23.344;2023-02-02T06:05:46;13.30;;;7.23;;
3177;SDS011;38141;42.666;23.344;2023-02-02T06:08:13;15.33;;;8.10;;
3177;SDS011;38141;42.666;23.344;2023-02-02T06:10:41;13.57;;;8.43;;
3177;SDS011;38141;42.666;23.344;2023-02-02T06:13:08;12.93;;;8.57;;
3177;SDS011;38141;42.666;23.344;2023-02-02T06:15:34;12.27;;;8.13;;
3177;SDS011;38141;42.666;23.344;2023-02-02T06:18:02;15.70;;;8.30;;
3177;SDS011;38141;42.666;23.344;2023-02-02T06:20:30;19.33;;;9.30;;
3177;SDS011;38141;42.666;23.344;2023-02-02T06:22:57;16.03;;;8.10;;
3177;SDS011;38141;42.666;23.344;2023-02-02T06:25:24;15.90;;;8.33;;
3177;SDS011;38141;42.666;23.344;2023-02-02T06:27:55;13.93;;;8.37;;
3177;SDS011;38141;42.666;23.344;2023-02-02T06:30:22;11.70;;;8.20;;
3177;SDS011;38141;42.666;23.344;2023-02-02T06:32:49;13.73;;;7.90;;
3177;SDS011;38141;42.666;23.344;2023-02-02T06:35:16;16.93;;;9.03;;
3177;SDS011;38141;42.666;23.344;2023-02-02T06:37:43;18.23;;;9.53;;
3177;SDS011;38141;42.666;23.344;2023-02-02T06:40:10;14.90;;;8.90;;
3177;SDS011;38141;42.666;23.344;2023-02-02T06:42:37;15.50;;;9.53;;
3177;SDS011;38141;42.666;23.344;2023-02-02T06:45:06;17.47;;;9.20;;
3177;SDS011;38141;42.666;23.344;2023-02-02T06:47:34;19.10;;;11.37;;
3177;SDS011;38141;42.666;23.344;2023-02-02T06:50:00;21.10;;;10.30;;
3177;SDS011;38141;42.666;23.344;2023-02-02T06:52:27;16.73;;;10.00;;
3177;SDS011;38141;42.666;23.344;2023-02-02T06:54:54;17.37;;;8.90;;
3177;SDS011;38141;42.666;23.344;2023-02-02T06:57:21;22.03;;;10.30;;
3177;SDS011;38141;42.666;23.344;2023-02-02T06:59:47;18.97;;;10.07;;
3177;SDS011;38141;42.666;23.344;2023-02-02T07:02:16;16.77;;;11.20;;
3177;SDS011;38141;42.666;23.344;2023-02-02T07:04:43;17.10;;;10.43;;
3177;SDS011;38141;42.666;23.344;2023-02-02T07:07:10;22.70;;;12.23;;
3177;SDS011;38141;42.666;23.344;2023-02-02T07:09:36;17.83;;;10.97;;
3177;SDS011;38141;42.666;23.344;2023-02-02T07:12:03;19.30;;;12.20;;
3177;SDS011;38141;42.666;23.344;2023-02-02T07:14:30;19.00;;;11.83;;
3177;SDS011;38141;42.666;23.344;2023-02-02T07:16:57;20.63;;;12.60;;
3177;SDS011;38141;42.666;23.344;2023-02-02T07:19:25;20.80;;;11.63;;
3177;SDS011;38141;42.666;23.344;2023-02-02T07:21:51;23.13;;;13.23;;
3177;SDS011;38141;42.666;23.344;2023-02-02T07:24:18;34.23;;;12.90;;
3177;SDS011;38141;42.666;23.344;2023-02-02T07:26:45;32.70;;;16.60;;
3177;SDS011;38141;42.666;23.344;2023-02-02T07:29:12;26.57;;;15.60;;
3177;SDS011;38141;42.666;23.344;2023-02-02T07:31:39;28.93;;;16.10;;
3177;SDS011;38141;42.666;23.344;2023-02-02T07:34:06;30.97;;;17.30;;
3177;SDS011;38141;42.666;23.344;2023-02-02T07:36:34;29.57;;;15.60;;
3177;SDS011;38141;42.666;23.344;2023-02-02T07:39:02;39.40;;;17.67;;
3177;SDS011;38141;42.666;23.344;2023-02-02T07:41:32;32.50;;;18.13;;
3177;SDS011;38141;42.666;23.344;2023-02-02T07:44:01;30.47;;;17.20;;
3177;SDS011;38141;42.666;23.344;2023-02-02T07:46:27;34.60;;;17.53;;
3177;SDS011;38141;42.666;23.344;2023-02-02T07:48:55;27.50;;;16.10;;
3177;SDS011;38141;42.666;23.344;2023-02-02T07:51:22;36.80;;;15.93;;
3177;SDS011;38141;42.666;23.344;2023-02-02T07:53:52;36.13;;;17.40;;
3177;SDS011;38141;42.666;23.344;2023-02-02T07:56:23;30.40;;;17.40;;
3177;SDS011;38141;42.666;23.344;2023-02-02T07:58:52;30.10;;;16.00;;
3177;SDS011;38141;42.666;23.344;2023-02-02T08:01:19;31.40;;;17.03;;
3177;SDS011;38141;42.666;23.344;2023-02-02T08:03:50;23.13;;;14.70;;
3177;SDS011;38141;42.666;23.344;2023-02-02T08:06:18;33.90;;;16.30;;
3177;SDS011;38141;42.666;23.344;2023-02-02T08:08:46;34.30;;;16.63;;
3177;SDS011;38141;42.666;23.344;2023-02-02T08:11:14;27.67;;;16.27;;
3177;SDS011;38141;42.666;23.344;2023-02-02T08:13:43;29.30;;;17.10;;
3177;SDS011;38141;42.666;23.344;2023-02-02T08:16:10;29.93;;;17.53;;
3177;SDS011;38141;42.666;23.344;2023-02-02T08:18:37;21.90;;;15.10;;
3177;SDS011;38141;42.666;23.344;2023-02-02T08:21:05;29.60;;;16.00;;
3177;SDS011;38141;42.666;23.344;2023-02-02T08:23:33;21.60;;;14.83;;
3177;SDS011;38141;42.666;23.344;2023-02-02T08:26:04;34.60;;;19.03;;
3177;SDS011;38141;42.666;23.344;2023-02-02T08:28:34;37.30;;;19.77;;
3177;SDS011;38141;42.666;23.344;2023-02-02T08:31:05;42.50;;;22.00;;
3177;SDS011;38141;42.666;23.344;2023-02-02T08:33:33;37.60;;;24.40;;
3177;SDS011;38141;42.666;23.344;2023-02-02T08:36:00;39.97;;;22.47;;
3177;SDS011;38141;42.666;23.344;2023-02-02T08:38:27;39.53;;;22.07;;
3177;SDS011;38141;42.666;23.344;2023-02-02T08:40:54;39.80;;;23.03;;
3177;SDS011;38141;42.666;23.344;2023-02-02T08:43:21;37.77;;;20.10;;
3177;SDS011;38141;42.666;23.344;2023-02-02T08:45:50;28.13;;;17.30;;
3177;SDS011;38141;42.666;23.344;2023-02-02T08:48:17;27.13;;;15.40;;
3177;SDS011;38141;42.666;23.344;2023-02-02T08:50:50;21.73;;;12.73;;
3177;SDS011;38141;42.666;23.344;2023-02-02T08:53:17;25.03;;;12.30;;
3177;SDS011;38141;42.666;23.344;2023-02-02T08:55:44;20.87;;;10.80;;
3177;SDS011;38141;42.666;23.344;2023-02-02T08:58:11;40.90;;;24.40;;
3177;SDS011;38141;42.666;23.344;2023-02-02T09:00:37;23.33;;;15.83;;
3177;SDS011;38141;42.666;23.344;2023-02-02T09:03:06;17.13;;;10.00;;
3177;SDS011;38141;42.666;23.344;2023-02-02T09:05:34;17.83;;;10.00;;
3177;SDS011;38141;42.666;23.344;2023-02-02T09:08:02;16.00;;;9.70;;
3177;SDS011;38141;42.666;23.344;2023-02-02T09:10:29;23.50;;;13.37;;
3177;SDS011;38141;42.666;23.344;2023-02-02T09:12:56;15.23;;;9.03;;
3177;SDS011;38141;42.666;23.344;2023-02-02T09:15:23;22.20;;;13.07;;
3177;SDS011;38141;42.666;23.344;2023-02-02T09:17:50;21.27;;;13.50;;
3177;SDS011;38141;42.666;23.344;2023-02-02T09:20:18;23.20;;;15.00;;
3177;SDS011;38141;42.666;23.344;2023-02-02T09:22:45;23.50;;;15.13;;
3177;SDS011;38141;42.666;23.344;2023-02-02T09:25:12;28.63;;;15.47;;
3177;SDS011;38141;42.666;23.344;2023-02-02T09:27:39;31.13;;;16.20;;
3177;SDS011;38141;42.666;23.344;2023-02-02T09:30:07;30.00;;;15.93;;
3177;SDS011;38141;42.666;23.344;2023-02-02T09:32:35;21.97;;;15.10;;
3177;SDS011;38141;42.666;23.344;2023-02-02T09:35:01;24.40;;;14.77;;
3177;SDS011;38141;42.666;23.344;2023-02-02T09:37:30;45.90;;;24.77;;
3177;SDS011;38141;42.666;23.344;2023-02-02T09:39:59;27.03;;;15.70;;
3177;SDS011;38141;42.666;23.344;2023-02-02T09:42:29;24.20;;;15.27;;
3177;SDS011;38141;42.666;23.344;2023-02-02T09:45:07;20.70;;;13.03;;
3177;SDS011;38141;42.666;23.344;2023-02-02T09:47:51;22.47;;;13.93;;
3177;SDS011;38141;42.666;23.344;2023-02-02T09:50:21;21.23;;;11.27;;
3177;SDS011;38141;42.666;23.344;2023-02-02T09:53:12;21.10;;;12.10;;
3177;SDS011;38141;42.666;23.344;2023-02-02T09:55:44;25.53;;;14.83;;
3177;SDS011;38141;42.666;23.344;2023-02-02T09:58:14;23.70;;;13.80;;
3177;SDS011;38141;42.666;23.344;2023-02-02T10:00:46;21.57;;;13.20;;
3177;SDS011;38141;42.666;23.344;2023-02-02T10:03:20;28.93;;;15.33;;
3177;SDS011;38141;42.666;23.344;2023-02-02T10:05:50;27.07;;;15.03;;
3177;SDS011;38141;42.666;23.344;2023-02-02T10:08:25;26.80;;;17.13;;
3177;SDS011;38141;42.666;23.344;2023-02-02T10:10:58;30.00;;;16.83;;
3177;SDS011;38141;42.666;23.344;2023-02-02T10:13:30;21.53;;;13.23;;
3177;SDS011;38141;42.666;23.344;2023-02-02T10:16:03;23.00;;;14.03;;
3177;SDS011;38141;42.666;23.344;2023-02-02T10:18:37;21.00;;;11.63;;
3177;SDS011;38141;42.666;23.344;2023-02-02T10:21:12;14.90;;;9.63;;
3177;SDS011;38141;42.666;23.344;2023-02-02T10:23:47;17.77;;;9.37;;
3177;SDS011;38141;42.666;23.344;2023-02-02T10:26:15;16.03;;;10.80;;
3177;SDS011;38141;42.666;23.344;2023-02-02T10:28:50;20.57;;;11.40;;
3177;SDS011;38141;42.666;23.344;2023-02-02T10:31:32;16.90;;;10.70;;
3177;SDS011;38141;42.666;23.344;2023-02-02T10:34:08;14.27;;;8.67;;
3177;SDS011;38141;42.666;23.344;2023-02-02T10:36:44;6.47;;;4.90;;
3177;SDS011;38141;42.666;23.344;2023-02-02T10:39:24;7.67;;;5.30;;
3177;SDS011;38141;42.666;23.344;2023-02-02T10:42:00;10.00;;;6.77;;
3177;SDS011;38141;42.666;23.344;2023-02-02T10:44:39;7.87;;;4.37;;
3177;SDS011;38141;42.666;23.344;2023-02-02T10:47:12;6.13;;;4.20;;
3177;SDS011;38141;42.666;23.344;2023-02-02T10:49:44;6.20;;;3.37;;
3177;SDS011;38141;42.666;23.344;2023-02-02T10:52:19;3.97;;;3.30;;
3177;SDS011;38141;42.666;23.344;2023-02-02T10:54:55;4.10;;;3.20;;
3177;SDS011;38141;42.666;23.344;2023-02-02T10:57:37;4.93;;;4.07;;
3177;SDS011;38141;42.666;23.344;2023-02-02T11:00:14;7.97;;;3.57;;
3177;SDS011;38141;42.666;23.344;2023-02-02T11:02:47;11.50;;;8.27;;
3177;SDS011;38141;42.666;23.344;2023-02-02T11:05:17;6.63;;;3.80;;
3177;SDS011;38141;42.666;23.344;2023-02-02T11:08:09;5.73;;;3.57;;
3177;SDS011;38141;42.666;23.344;2023-02-02T11:10:39;10.90;;;3.70;;
3177;SDS011;38141;42.666;23.344;2023-02-02T11:13:06;4.90;;;2.80;;
3177;SDS011;38141;42.666;23.344;2023-02-02T11:15:40;4.10;;;3.50;;
3177;SDS011;38141;42.666;23.344;2023-02-02T11:18:23;17.07;;;10.70;;
3177;SDS011;38141;42.666;23.344;2023-02-02T11:20:53;4.73;;;3.23;;
3177;SDS011;38141;42.666;23.344;2023-02-02T11:23:21;4.57;;;3.20;;
3177;SDS011;38141;42.666;23.344;2023-02-02T11:25:59;6.07;;;4.03;;
3177;SDS011;38141;42.666;23.344;2023-02-02T11:28:30;7.90;;;3.87;;
3177;SDS011;38141;42.666;23.344;2023-02-02T11:31:00;6.17;;;3.80;;
3177;SDS011;38141;42.666;23.344;2023-02-02T11:33:28;5.60;;;4.40;;
3177;SDS011;38141;42.666;23.344;2023-02-02T11:35:58;4.30;;;3.33;;
3177;SDS011;38141;42.666;23.344;2023-02-02T11:38:27;5.33;;;3.17;;
3177;SDS011;38141;42.666;23.344;2023-02-02T11:40:55;3.13;;;2.80;;
3177;SDS011;38141;42.666;23.344;2023-02-02T11:43:29;7.37;;;2.80;;
3177;SDS011;38141;42.666;23.344;2023-02-02T11:45:59;7.17;;;3.40;;
3177;SDS011;38141;42.666;23.344;2023-02-02T11:48:29;5.30;;;3.50;;
3177;SDS011;38141;42.666;23.344;2023-02-02T11:50:59;6.67;;;4.37;;
3177;SDS011;38141;42.666;23.344;2023-02-02T11:53:28;5.17;;;4.10;;
3177;SDS011;38141;42.666;23.344;2023-02-02T11:55:57;7.23;;;3.00;;
3177;SDS011;38141;42.666;23.344;2023-02-02T11:58:31;11.00;;;3.40;;
3177;SDS011;38141;42.666;23.344;2023-02-02T12:01:15;3.40;;;3.10;;
3177;SDS011;38141;42.666;23.344;2023-02-02T12:03:49;12.70;;;7.67;;
3177;SDS011;38141;42.666;23.344;2023-02-02T12:06:18;7.33;;;5.03;;
3177;SDS011;38141;42.666;23.344;2023-02-02T12:08:46;6.60;;;3.43;;
3177;SDS011;38141;42.666;23.344;2023-02-02T12:11:21;8.00;;;3.60;;
3177;SDS011;38141;42.666;23.344;2023-02-02T12:14:00;4.33;;;3.20;;
3177;SDS011;38141;42.666;23.344;2023-02-02T12:16:44;6.60;;;2.80;;
3177;SDS011;38141;42.666;23.344;2023-02-02T12:19:28;7.70;;;4.60;;
3177;SDS011;38141;42.666;23.344;2023-02-02T12:22:18;4.10;;;3.40;;
3177;SDS011;38141;42.666;23.344;2023-02-02T12:24:53;6.53;;;3.37;;
3177;SDS011;38141;42.666;23.344;2023-02-02T12:27:29;11.27;;;3.80;;
3177;SDS011;38141;42.666;23.344;2023-02-02T12:30:08;7.27;;;3.83;;
3177;SDS011;38141;42.666;23.344;2023-02-02T12:32:45;4.60;;;3.40;;
3177;SDS011;38141;42.666;23.344;2023-02-02T12:35:28;7.50;;;4.80;;
3177;SDS011;38141;42.666;23.344;2023-02-02T12:38:09;8.20;;;3.40;;
3177;SDS011;38141;42.666;23.344;2023-02-02T12:40:53;5.20;;;3.10;;
3177;SDS011;38141;42.666;23.344;2023-02-02T12:43:38;2.60;;;2.23;;
3177;SDS011;38141;42.666;23.344;2023-02-02T12:49:21;8.83;;;2.23;;
3177;SDS011;38141;42.666;23.344;2023-02-02T12:52:14;4.47;;;2.70;;
3177;SDS011;38141;42.666;23.344;2023-02-02T12:57:47;12.90;;;7.60;;
3177;SDS011;38141;42.666;23.344;2023-02-02T13:03:19;4.40;;;3.27;;
3177;SDS011;38141;42.666;23.344;2023-02-02T13:05:56;4.90;;;2.80;;
3177;SDS011;38141;42.666;23.344;2023-02-02T13:08:31;5.07;;;2.70;;
3177;SDS011;38141;42.666;23.344;2023-02-02T13:11:02;7.63;;;4.60;;
3177;SDS011;38141;42.666;23.344;2023-02-02T13:13:53;4.87;;;3.30;;
3177;SDS011;38141;42.666;23.344;2023-02-02T13:16:24;7.70;;;4.53;;
3177;SDS011;38141;42.666;23.344;2023-02-02T13:18:54;4.00;;;3.20;;
3177;SDS011;38141;42.666;23.344;2023-02-02T13:21:26;3.90;;;3.47;;
3177;SDS011;38141;42.666;23.344;2023-02-02T13:23:58;6.60;;;4.70;;
3177;SDS011;38141;42.666;23.344;2023-02-02T13:26:28;11.17;;;4.70;;
3177;SDS011;38141;42.666;23.344;2023-02-02T13:29:02;8.50;;;4.60;;
3177;SDS011;38141;42.666;23.344;2023-02-02T13:31:36;6.60;;;4.10;;
3177;SDS011;38141;42.666;23.344;2023-02-02T13:34:11;7.20;;;4.37;;
3177;SDS011;38141;42.666;23.344;2023-02-02T13:36:43;4.50;;;3.73;;
3177;SDS011;38141;42.666;23.344;2023-02-02T13:39:16;5.70;;;3.60;;
3177;SDS011;38141;42.666;23.344;2023-02-02T13:41:52;3.73;;;3.33;;
3177;SDS011;38141;42.666;23.344;2023-02-02T13:44:20;5.90;;;2.83;;
3177;SDS011;38141;42.666;23.344;2023-02-02T13:46:56;5.23;;;2.50;;
3177;SDS011;38141;42.666;23.344;2023-02-02T13:49:28;2.93;;;2.40;;
3177;SDS011;38141;42.666;23.344;2023-02-02T13:52:02;6.33;;;2.80;;
3177;SDS011;38141;42.666;23.344;2023-02-02T14:00:33;7.03;;;5.40;;
3177;SDS011;38141;42.666;23.344;2023-02-02T14:03:05;6.40;;;2.97;;
3177;SDS011;38141;42.666;23.344;2023-02-02T14:06:00;3.17;;;2.63;;
3177;SDS011;38141;42.666;23.344;2023-02-02T14:08:30;4.10;;;2.80;;
3177;SDS011;38141;42.666;23.344;2023-02-02T14:10:58;5.20;;;3.17;;
3177;SDS011;38141;42.666;23.344;2023-02-02T14:13:29;3.60;;;2.43;;
3177;SDS011;38141;42.666;23.344;2023-02-02T14:16:21;3.30;;;2.40;;
3177;SDS011;38141;42.666;23.344;2023-02-02T14:18:52;4.00;;;2.97;;
3177;SDS011;38141;42.666;23.344;2023-02-02T14:27:39;4.10;;;2.80;;
3177;SDS011;38141;42.666;23.344;2023-02-02T14:30:28;3.67;;;2.57;;
3177;SDS011;38141;42.666;23.344;2023-02-02T14:36:09;3.50;;;2.70;;
3177;SDS011;38141;42.666;23.344;2023-02-02T14:38:49;3.13;;;2.80;;
3177;SDS011;38141;42.666;23.344;2023-02-02T14:41:28;4.07;;;2.73;;
3177;SDS011;38141;42.666;23.344;2023-02-02T14:44:29;4.77;;;2.83;;
3177;SDS011;38141;42.666;23.344;2023-02-02T14:46:56;3.30;;;2.90;;
3177;SDS011;38141;42.666;23.344;2023-02-02T14:49:24;4.57;;;3.57;;
3177;SDS011;38141;42.666;23.344;2023-02-02T14:52:00;4.90;;;3.60;;
3177;SDS011;38141;42.666;23.344;2023-02-02T14:54:36;5.43;;;3.50;;
3177;SDS011;38141;42.666;23.344;2023-02-02T14:59:53;7.63;;;5.30;;
3177;SDS011;38141;42.666;23.344;2023-02-02T15:02:21;7.17;;;5.33;;
3177;SDS011;38141;42.666;23.344;2023-02-02T15:08:06;6.30;;;5.37;;
3177;SDS011;38141;42.666;23.344;2023-02-02T15:10:55;7.67;;;5.83;;
3177;SDS011;38141;42.666;23.344;2023-02-02T15:13:48;6.30;;;5.13;;
3177;SDS011;38141;42.666;23.344;2023-02-02T15:16:21;6.27;;;4.20;;
3177;SDS011;38141;42.666;23.344;2023-02-02T15:18:54;6.07;;;4.23;;
3177;SDS011;38141;42.666;23.344;2023-02-02T15:21:29;4.93;;;4.00;;
3177;SDS011;38141;42.666;23.344;2023-02-02T15:24:01;5.70;;;4.30;;
3177;SDS011;38141;42.666;23.344;2023-02-02T15:26:32;5.80;;;3.93;;
3177;SDS011;38141;42.666;23.344;2023-02-02T15:29:04;5.30;;;3.70;;
3177;SDS011;38141;42.666;23.344;2023-02-02T15:31:34;4.10;;;3.50;;
3177;SDS011;38141;42.666;23.344;2023-02-02T15:34:08;4.47;;;3.60;;
3177;SDS011;38141;42.666;23.344;2023-02-02T15:36:41;4.37;;;3.40;;
3177;SDS011;38141;42.666;23.344;2023-02-02T15:39:20;6.07;;;4.00;;
3177;SDS011;38141;42.666;23.344;2023-02-02T15:41:53;8.60;;;4.53;;